createdAt,value
2017-09-18T00:01:26.275Z,84.50
2017-09-18T00:03:53.764Z,84.50
2017-09-18T00:06:21.260Z,84.60
2017-09-18T00:08:48.735Z,84.70
2017-09-18T00:11:16.972Z,84.70
2017-09-18T00:13:44.455Z,84.60
2017-09-18T00:16:12.702Z,84.60
2017-09-18T00:18:40.187Z,84.60
2017-09-18T00:21:08.428Z,84.50
2017-09-18T00:23:35.912Z,84.50
2017-09-18T00:26:03.392Z,84.40
2017-09-18T00:28:30.879Z,84.40
2017-09-18T00:30:58.359Z,84.50
2017-09-18T00:33:25.852Z,84.70
2017-09-18T00:35:54.099Z,84.50
2017-09-18T00:38:21.582Z,84.50
2017-09-18T00:40:49.819Z,84.40
2017-09-18T00:43:17.311Z,84.00
2017-09-18T00:45:45.551Z,84.00
2017-09-18T00:48:13.035Z,84.10
2017-09-18T00:50:40.504Z,83.80
2017-09-18T00:53:08.759Z,84.00
2017-09-18T00:55:36.248Z,83.90
2017-09-18T00:58:04.493Z,83.70
2017-09-18T01:00:31.978Z,83.60
2017-09-18T01:02:59.456Z,83.10
2017-09-18T01:05:26.944Z,83.20
2017-09-18T01:07:54.425Z,83.20
2017-09-18T01:10:21.912Z,83.60
2017-09-18T01:12:49.388Z,84.00
2017-09-18T01:15:16.880Z,84.10
2017-09-18T01:17:44.363Z,83.90
2017-09-18T01:20:11.850Z,83.70
2017-09-18T01:22:39.330Z,83.60
2017-09-18T01:25:06.832Z,83.80
2017-09-18T01:27:34.312Z,84.30
2017-09-18T01:30:01.800Z,84.20
2017-09-18T01:32:29.271Z,84.10
2017-09-18T01:34:56.760Z,83.80
2017-09-18T01:37:24.247Z,84.20
2017-09-18T01:39:51.724Z,84.40
2017-09-18T01:42:19.217Z,84.30
2017-09-18T01:44:46.691Z,84.10
2017-09-18T01:47:14.172Z,84.00
2017-09-18T01:49:41.640Z,84.30
2017-09-18T01:52:09.134Z,84.50
2017-09-18T01:54:36.611Z,84.50
2017-09-18T01:57:04.103Z,84.20
2017-09-18T01:59:31.575Z,83.90
2017-09-18T02:01:59.068Z,83.70
2017-09-18T02:04:26.536Z,83.60
2017-09-18T02:06:54.039Z,83.50
2017-09-18T02:09:21.508Z,83.40
2017-09-18T02:11:48.991Z,83.50
2017-09-18T02:14:16.480Z,83.50
2017-09-18T02:16:43.951Z,83.30
2017-09-18T02:19:12.207Z,83.20
2017-09-18T02:21:39.682Z,83.20
2017-09-18T02:24:07.943Z,83.50
2017-09-18T02:26:35.419Z,82.90
2017-09-18T02:29:02.899Z,82.80
2017-09-18T02:31:30.386Z,83.00
2017-09-18T02:33:57.875Z,82.90
2017-09-18T02:36:25.352Z,82.80
2017-09-18T02:38:53.662Z,83.00
2017-09-18T02:41:21.140Z,83.00
2017-09-18T02:43:48.627Z,83.00
2017-09-18T02:46:16.868Z,82.70
2017-09-18T02:48:44.368Z,82.80
2017-09-18T02:51:12.607Z,82.70
2017-09-18T02:53:40.111Z,82.60
2017-09-18T02:56:07.581Z,82.60
2017-09-18T02:58:35.065Z,82.70
2017-09-18T03:01:02.555Z,82.60
2017-09-18T03:03:30.023Z,82.70
2017-09-18T03:05:58.275Z,82.70
2017-09-18T03:08:25.750Z,82.70
2017-09-18T03:10:53.234Z,82.70
2017-09-18T03:13:20.703Z,82.80
2017-09-18T03:15:48.191Z,83.50
2017-09-18T03:18:15.751Z,83.00
2017-09-18T03:20:43.358Z,83.10
2017-09-18T03:23:10.840Z,82.90
2017-09-18T03:25:38.522Z,83.00
2017-09-18T03:28:06.029Z,83.10
2017-09-18T03:30:33.537Z,83.10
2017-09-18T03:33:01.013Z,83.10
2017-09-18T03:35:28.521Z,83.00
2017-09-18T03:37:56.002Z,82.70
2017-09-18T03:40:23.480Z,82.80
2017-09-18T03:42:50.980Z,82.80
2017-09-18T03:45:19.231Z,83.00
2017-09-18T03:47:46.727Z,83.00
2017-09-18T03:50:14.212Z,83.00
2017-09-18T03:52:41.716Z,83.10
2017-09-18T03:55:09.256Z,83.20
2017-09-18T03:57:36.791Z,83.20
2017-09-18T04:00:04.274Z,83.50
2017-09-18T04:02:31.788Z,83.60
2017-09-18T04:04:59.290Z,83.60
2017-09-18T04:07:26.775Z,83.40
2017-09-18T04:09:54.323Z,83.50
2017-09-18T04:12:21.838Z,83.60
2017-09-18T04:14:49.326Z,83.70
2017-09-18T04:17:16.820Z,83.80
2017-09-18T04:19:44.298Z,83.80
2017-09-18T04:22:11.824Z,83.80
2017-09-18T04:24:39.327Z,83.80
2017-09-18T04:27:06.807Z,84.00
2017-09-18T04:29:34.295Z,84.10
2017-09-18T04:32:02.557Z,83.90
2017-09-18T04:34:30.857Z,83.60
2017-09-18T04:36:58.349Z,83.60
2017-09-18T04:39:25.844Z,83.60
2017-09-18T04:41:53.319Z,83.30
2017-09-18T04:44:21.592Z,83.80
2017-09-18T04:46:49.865Z,83.60
2017-09-18T04:49:18.148Z,83.40
2017-09-18T04:51:45.660Z,83.50
2017-09-18T04:54:13.207Z,83.80
2017-09-18T04:56:40.703Z,84.60
2017-09-18T04:59:09.004Z,83.50
2017-09-18T05:01:36.533Z,83.50
2017-09-18T05:04:04.024Z,83.10
2017-09-18T05:06:31.531Z,83.20
2017-09-18T05:08:59.032Z,83.60
2017-09-18T05:11:27.301Z,83.70
2017-09-18T05:13:54.841Z,83.70
2017-09-18T05:16:22.380Z,84.30
2017-09-18T05:18:49.872Z,83.80
2017-09-18T05:21:17.425Z,83.70
2017-09-18T05:23:45.718Z,83.50
2017-09-18T05:26:13.256Z,83.50
2017-09-18T05:28:40.755Z,83.50
2017-09-18T05:31:08.458Z,83.30
2017-09-18T05:33:35.954Z,83.40
2017-09-18T05:36:03.458Z,83.50
2017-09-18T05:38:30.976Z,83.50
2017-09-18T05:40:58.499Z,83.60
2017-09-18T05:43:26.025Z,83.80
2017-09-18T05:45:53.548Z,84.00
2017-09-18T05:48:21.084Z,84.30
2017-09-18T05:50:48.607Z,84.20
2017-09-18T05:53:16.109Z,84.50
2017-09-18T05:55:44.396Z,85.10
2017-09-18T05:58:12.686Z,85.30
2017-09-18T06:00:40.193Z,85.30
2017-09-18T06:03:07.736Z,85.40
2017-09-18T06:05:35.320Z,85.30
2017-09-18T06:08:02.864Z,85.40
2017-09-18T06:10:30.371Z,85.50
2017-09-18T06:12:57.904Z,85.60
2017-09-18T06:15:25.388Z,85.70
2017-09-18T06:17:52.928Z,85.70
2017-09-18T06:20:21.235Z,85.90
2017-09-18T06:22:48.753Z,85.80
2017-09-18T06:25:16.308Z,85.80
2017-09-18T06:27:43.787Z,85.90
2017-09-18T06:30:12.060Z,86.00
2017-09-18T06:32:39.572Z,86.00
2017-09-18T06:35:07.074Z,86.00
2017-09-18T06:37:34.597Z,86.00
2017-09-18T06:40:02.107Z,86.10
2017-09-18T06:42:29.629Z,85.90
2017-09-18T06:44:57.211Z,85.70
2017-09-18T06:47:24.720Z,85.60
2017-09-18T06:49:52.236Z,85.50
2017-09-18T06:52:19.800Z,85.40
2017-09-18T06:54:47.311Z,85.60
2017-09-18T06:57:14.843Z,85.30
2017-09-18T06:59:42.376Z,85.20
2017-09-18T07:02:09.893Z,84.40
2017-09-18T07:04:37.502Z,83.80
2017-09-18T07:07:05.020Z,83.60
2017-09-18T07:09:32.512Z,83.20
2017-09-18T07:12:00.027Z,83.00
2017-09-18T07:14:27.535Z,82.70
2017-09-18T07:16:55.140Z,82.10
2017-09-18T07:19:22.631Z,81.20
2017-09-18T07:21:50.180Z,81.20
2017-09-18T07:24:17.704Z,80.40
2017-09-18T07:26:45.245Z,80.90
2017-09-18T07:29:12.768Z,80.50
2017-09-18T07:31:40.270Z,79.60
2017-09-18T07:34:07.784Z,79.20
2017-09-18T07:36:35.312Z,78.40
2017-09-18T07:39:02.852Z,79.00
2017-09-18T07:41:30.339Z,78.70
2017-09-18T07:43:57.881Z,78.60
2017-09-18T07:46:25.389Z,78.80
2017-09-18T07:48:52.912Z,78.90
2017-09-18T07:51:20.452Z,79.50
2017-09-18T07:53:47.955Z,79.60
2017-09-18T07:56:15.476Z,79.10
2017-09-18T07:58:43.167Z,78.90
2017-09-18T08:01:10.697Z,79.00
2017-09-18T08:03:38.232Z,78.60
2017-09-18T08:06:05.749Z,78.90
2017-09-18T08:08:33.255Z,79.20
2017-09-18T08:11:00.823Z,79.20
2017-09-18T08:13:28.326Z,77.80
2017-09-18T08:15:55.887Z,78.20
2017-09-18T08:18:23.393Z,78.00
2017-09-18T08:20:50.914Z,78.50
2017-09-18T08:23:18.429Z,77.70
2017-09-18T08:25:46.027Z,77.70
2017-09-18T08:28:13.510Z,78.10
2017-09-18T08:30:41.008Z,78.30
2017-09-18T08:33:08.497Z,78.50
2017-09-18T08:35:36.024Z,78.50
2017-09-18T08:38:03.540Z,76.80
2017-09-18T08:40:31.057Z,76.70
2017-09-18T08:42:59.308Z,76.90
2017-09-18T08:45:26.804Z,77.00
2017-09-18T08:47:54.317Z,77.20
2017-09-18T08:50:21.800Z,76.30
2017-09-18T08:52:50.076Z,75.30
2017-09-18T08:55:17.628Z,75.30
2017-09-18T08:57:45.183Z,74.80
2017-09-18T09:00:13.476Z,74.60
2017-09-18T09:02:41.748Z,75.50
2017-09-18T09:05:09.255Z,75.50
2017-09-18T09:07:36.769Z,75.00
2017-09-18T09:10:04.311Z,74.00
2017-09-18T09:12:31.890Z,74.30
2017-09-18T09:14:59.421Z,73.90
2017-09-18T09:17:26.911Z,73.70
2017-09-18T09:19:54.519Z,72.50
2017-09-18T09:22:22.008Z,73.30
2017-09-18T09:24:49.555Z,72.50
2017-09-18T09:27:17.043Z,72.50
2017-09-18T09:29:44.572Z,72.30
2017-09-18T09:32:12.119Z,72.50
2017-09-18T09:34:39.620Z,72.30
2017-09-18T09:37:07.443Z,72.50
2017-09-18T09:39:34.987Z,70.50
2017-09-18T09:42:02.508Z,69.60
2017-09-18T09:44:30.023Z,69.40
2017-09-18T09:46:57.597Z,68.80
2017-09-18T09:49:25.371Z,67.80
2017-09-18T09:51:53.637Z,69.70
2017-09-18T09:54:21.144Z,69.70
2017-09-18T09:56:48.665Z,69.90
2017-09-18T09:59:16.134Z,70.50
2017-09-18T10:01:43.667Z,69.10
2017-09-18T10:04:11.157Z,67.90
2017-09-18T10:06:38.684Z,67.50
2017-09-18T10:09:06.239Z,66.00
2017-09-18T10:11:33.782Z,66.10
2017-09-18T10:14:01.281Z,67.10
2017-09-18T10:16:28.840Z,66.90
2017-09-18T10:18:59.753Z,67.40
2017-09-18T10:21:27.267Z,67.80
2017-09-18T10:23:54.795Z,68.60
2017-09-18T10:26:22.291Z,68.60
2017-09-18T10:28:49.826Z,68.00
2017-09-18T10:31:17.315Z,66.50
2017-09-18T10:33:44.804Z,66.10
2017-09-18T10:36:12.315Z,66.40
2017-09-18T10:38:39.844Z,67.10
2017-09-18T10:41:07.328Z,67.60
2017-09-18T10:43:34.827Z,68.40
2017-09-18T10:46:02.349Z,67.70
2017-09-18T10:48:29.866Z,68.10
2017-09-18T10:50:57.375Z,67.40
2017-09-18T10:53:25.191Z,67.20
2017-09-18T10:55:53.437Z,66.80
2017-09-18T10:58:21.032Z,66.80
2017-09-18T11:00:48.537Z,66.70
2017-09-18T11:03:16.089Z,65.50
2017-09-18T11:05:43.606Z,66.50
2017-09-18T11:08:11.112Z,65.90
2017-09-18T11:10:38.620Z,64.90
2017-09-18T11:13:06.135Z,64.30
2017-09-18T11:15:33.685Z,63.60
2017-09-18T11:18:01.249Z,63.00
2017-09-18T11:20:28.759Z,61.80
2017-09-18T11:22:56.308Z,62.10
2017-09-18T11:25:23.812Z,61.80
2017-09-18T11:27:51.332Z,62.70
2017-09-18T11:30:18.863Z,63.70
2017-09-18T11:32:46.640Z,62.90
2017-09-18T11:35:14.152Z,62.20
2017-09-18T11:37:41.662Z,61.90
2017-09-18T11:40:09.172Z,61.80
2017-09-18T11:42:36.687Z,60.90
2017-09-18T11:45:04.248Z,61.50
2017-09-18T11:47:31.765Z,62.10
2017-09-18T11:49:59.265Z,62.00
2017-09-18T11:52:26.808Z,60.40
2017-09-18T11:54:54.363Z,60.20
2017-09-18T11:57:21.924Z,60.40
2017-09-18T11:59:49.444Z,59.80
2017-09-18T12:02:17.039Z,60.80
2017-09-18T12:04:44.595Z,60.40
2017-09-18T12:07:12.227Z,58.30
2017-09-18T12:09:39.935Z,58.20
2017-09-18T12:12:07.496Z,58.50
2017-09-18T12:14:35.048Z,58.70
2017-09-18T12:17:02.584Z,58.90
2017-09-18T12:19:30.222Z,61.10
2017-09-18T12:21:57.762Z,61.40
2017-09-18T12:24:25.458Z,61.80
2017-09-18T12:26:53.013Z,62.10
2017-09-18T12:29:20.584Z,59.90
2017-09-18T12:31:48.088Z,59.40
2017-09-18T12:34:15.580Z,59.60
2017-09-18T12:36:43.135Z,61.70
2017-09-18T12:39:10.672Z,62.00
2017-09-18T12:41:38.171Z,61.40
2017-09-18T12:44:05.677Z,62.90
2017-09-18T12:46:33.171Z,63.40
2017-09-18T12:49:00.704Z,63.10
2017-09-18T12:51:28.231Z,64.50
2017-09-18T12:53:55.744Z,64.60
2017-09-18T12:56:23.249Z,62.70
2017-09-18T12:58:50.771Z,61.90
2017-09-18T13:01:18.275Z,60.10
2017-09-18T13:03:45.793Z,61.20
2017-09-18T13:06:13.292Z,61.50
2017-09-18T13:08:40.799Z,60.60
2017-09-18T13:11:08.297Z,61.50
2017-09-18T13:13:35.796Z,60.70
2017-09-18T13:16:03.339Z,61.30
2017-09-18T13:18:30.890Z,60.00
2017-09-18T13:20:58.665Z,60.40
2017-09-18T13:23:26.200Z,61.40
2017-09-18T13:25:53.726Z,63.20
2017-09-18T13:28:21.259Z,63.10
2017-09-18T13:30:48.770Z,63.10
2017-09-18T13:33:16.461Z,63.30
2017-09-18T13:35:43.982Z,63.80
2017-09-18T13:38:11.530Z,63.70
2017-09-18T13:40:39.072Z,63.70
2017-09-18T13:43:06.604Z,63.50
2017-09-18T13:45:34.485Z,63.10
2017-09-18T13:48:02.007Z,65.00
2017-09-18T13:50:29.554Z,62.70
2017-09-18T13:52:57.065Z,63.60
2017-09-18T13:55:24.617Z,61.60
2017-09-18T13:57:52.133Z,61.00
2017-09-18T14:00:19.878Z,61.80
2017-09-18T14:02:47.403Z,60.60
2017-09-18T14:05:14.933Z,61.70
2017-09-18T14:07:42.475Z,58.10
2017-09-18T14:10:10.816Z,59.00
2017-09-18T14:12:39.100Z,56.90
2017-09-18T14:15:07.363Z,57.60
2017-09-18T14:17:34.875Z,57.80
2017-09-18T14:20:02.363Z,58.10
2017-09-18T14:22:29.882Z,57.00
2017-09-18T14:24:57.384Z,56.00
2017-09-18T14:27:24.934Z,57.40
2017-09-18T14:29:52.435Z,58.80
2017-09-18T14:32:19.950Z,58.90
2017-09-18T14:34:47.455Z,61.80
2017-09-18T14:37:15.770Z,61.20
2017-09-18T14:39:43.282Z,61.20
2017-09-18T14:42:11.575Z,60.50
2017-09-18T14:44:39.074Z,60.50
2017-09-18T14:47:06.577Z,60.50
2017-09-18T14:49:34.853Z,62.40
2017-09-18T14:52:03.126Z,60.40
2017-09-18T14:54:31.417Z,61.20
2017-09-18T14:56:58.907Z,61.10
2017-09-18T14:59:26.410Z,61.20
2017-09-18T15:01:54.708Z,61.80
2017-09-18T15:04:22.218Z,61.80
2017-09-18T15:06:49.725Z,61.10
2017-09-18T15:09:17.275Z,62.40
2017-09-18T15:11:44.832Z,64.10
2017-09-18T15:14:12.378Z,64.80
2017-09-18T15:16:39.901Z,65.90
2017-09-18T15:19:07.502Z,66.10
2017-09-18T15:21:35.075Z,66.40
2017-09-18T15:24:02.628Z,66.60
2017-09-18T15:26:30.144Z,67.20
2017-09-18T15:28:57.730Z,67.70
2017-09-18T15:31:25.893Z,66.90
2017-09-18T15:33:53.431Z,66.90
2017-09-18T15:36:20.948Z,66.40
2017-09-18T15:38:48.497Z,66.40
2017-09-18T15:41:16.084Z,66.40
2017-09-18T15:43:43.621Z,66.90
2017-09-18T15:46:11.177Z,67.00
2017-09-18T15:48:38.731Z,67.20
2017-09-18T15:51:07.680Z,66.90
2017-09-18T15:53:36.015Z,65.40
2017-09-18T15:56:03.591Z,65.40
2017-09-18T15:58:31.111Z,65.70
2017-09-18T16:00:58.627Z,66.50
2017-09-18T16:03:26.175Z,67.60
2017-09-18T16:05:53.767Z,67.20
2017-09-18T16:08:21.280Z,68.40
2017-09-18T16:10:48.808Z,69.00
2017-09-18T16:13:16.343Z,70.20
2017-09-18T16:15:43.895Z,71.70
2017-09-18T16:18:11.404Z,72.80
2017-09-18T16:20:38.944Z,73.10
2017-09-18T16:23:06.504Z,73.80
2017-09-18T16:25:34.137Z,75.20
2017-09-18T16:28:01.884Z,76.00
2017-09-18T16:30:29.517Z,75.90
2017-09-18T16:32:57.125Z,75.90
2017-09-18T16:35:24.683Z,75.30
2017-09-18T16:37:52.463Z,71.10
2017-09-18T16:40:20.761Z,70.80
2017-09-18T16:42:48.486Z,70.60
2017-09-18T16:45:15.984Z,72.30
2017-09-18T16:47:43.549Z,73.50
2017-09-18T16:50:11.087Z,74.00
2017-09-18T16:52:38.718Z,74.10
2017-09-18T16:55:06.264Z,74.70
2017-09-18T16:57:33.787Z,74.90
2017-09-18T17:00:01.336Z,75.40
2017-09-18T17:02:29.003Z,75.70
2017-09-18T17:04:56.598Z,76.20
2017-09-18T17:07:24.154Z,76.50
2017-09-18T17:09:51.775Z,76.90
2017-09-18T17:12:19.344Z,77.30
2017-09-18T17:14:46.958Z,77.60
2017-09-18T17:17:14.455Z,77.60
2017-09-18T17:19:42.021Z,76.50
2017-09-18T17:22:09.587Z,76.90
2017-09-18T17:24:37.149Z,76.90
2017-09-18T17:27:04.765Z,77.30
2017-09-18T17:29:32.647Z,77.20
2017-09-18T17:32:00.232Z,77.50
2017-09-18T17:34:27.955Z,78.10
2017-09-18T17:36:55.451Z,78.10
2017-09-18T17:39:23.177Z,78.40
2017-09-18T17:41:50.830Z,78.70
2017-09-18T17:44:18.382Z,78.90
2017-09-18T17:46:45.903Z,78.90
2017-09-18T17:49:14.120Z,78.80
2017-09-18T17:51:43.977Z,78.70
2017-09-18T17:54:11.564Z,78.90
2017-09-18T17:56:39.104Z,79.10
2017-09-18T17:59:06.643Z,79.00
2017-09-18T18:01:34.267Z,78.90
2017-09-18T18:04:01.935Z,79.00
2017-09-18T18:06:29.517Z,79.10
2017-09-18T18:08:57.172Z,79.20
2017-09-18T18:11:24.848Z,79.50
2017-09-18T18:13:52.421Z,79.70
2017-09-18T18:16:19.949Z,79.90
2017-09-18T18:18:48.243Z,80.20
2017-09-18T18:21:15.753Z,80.20
2017-09-18T18:23:43.323Z,80.40
2017-09-18T18:26:10.871Z,80.50
2017-09-18T18:28:38.438Z,80.80
2017-09-18T18:31:06.134Z,80.90
2017-09-18T18:33:33.783Z,81.00
2017-09-18T18:36:01.446Z,81.20
2017-09-18T18:38:29.098Z,81.30
2017-09-18T18:40:56.770Z,81.40
2017-09-18T18:43:24.577Z,81.40
2017-09-18T18:45:52.191Z,81.50
2017-09-18T18:48:19.948Z,81.50
2017-09-18T18:50:47.915Z,81.50
2017-09-18T18:53:18.600Z,81.50
2017-09-18T18:55:46.730Z,81.50
2017-09-18T18:58:15.291Z,81.50
2017-09-18T19:00:43.399Z,81.50
2017-09-18T19:03:11.142Z,81.60
2017-09-18T19:05:38.796Z,81.50
2017-09-18T19:08:06.400Z,81.50
2017-09-18T19:10:34.007Z,81.70
2017-09-18T19:13:01.516Z,81.70
2017-09-18T19:15:29.132Z,81.80
2017-09-18T19:17:57.795Z,82.00
2017-09-18T19:20:25.351Z,82.20
2017-09-18T19:22:52.980Z,82.30
2017-09-18T19:25:20.586Z,82.40
2017-09-18T19:27:48.363Z,82.70
2017-09-18T19:30:15.868Z,83.00
2017-09-18T19:32:43.359Z,83.10
2017-09-18T19:35:10.867Z,83.20
2017-09-18T19:37:39.182Z,83.60
2017-09-18T19:40:06.804Z,83.60
2017-09-18T19:42:35.127Z,83.90
2017-09-18T19:45:02.628Z,83.90
2017-09-18T19:47:30.156Z,84.10
2017-09-18T19:49:57.899Z,84.30
2017-09-18T19:52:25.457Z,85.00
2017-09-18T19:54:52.976Z,84.40
2017-09-18T19:57:20.580Z,84.50
2017-09-18T19:59:48.095Z,84.60
2017-09-18T20:02:16.395Z,84.70
2017-09-18T20:04:43.945Z,84.60
2017-09-18T20:07:11.618Z,84.70
2017-09-18T20:09:39.156Z,84.50
2017-09-18T20:12:07.447Z,84.40
2017-09-18T20:14:34.959Z,84.40
2017-09-18T20:17:02.682Z,84.30
2017-09-18T20:19:30.616Z,84.30
2017-09-18T20:21:58.912Z,84.50
2017-09-18T20:24:26.407Z,84.50
2017-09-18T20:26:53.924Z,84.50
2017-09-18T20:29:21.491Z,84.60
2017-09-18T20:31:49.036Z,84.60
2017-09-18T20:34:16.539Z,84.50
2017-09-18T20:36:44.223Z,84.60
2017-09-18T20:39:11.764Z,84.80
2017-09-18T20:41:39.277Z,84.80
2017-09-18T20:44:06.808Z,85.00
2017-09-18T20:46:34.377Z,84.80
2017-09-18T20:49:01.969Z,85.40
2017-09-18T20:51:29.548Z,85.40
2017-09-18T20:53:57.115Z,85.40
2017-09-18T20:56:24.710Z,85.20
2017-09-18T20:58:52.225Z,85.10
2017-09-18T21:01:19.798Z,85.00
2017-09-18T21:03:47.307Z,85.00
2017-09-18T21:06:15.041Z,85.00
2017-09-18T21:08:42.567Z,85.10
2017-09-18T21:11:10.089Z,85.00
2017-09-18T21:13:37.629Z,85.00
2017-09-18T21:16:05.171Z,85.10
2017-09-18T21:18:32.704Z,85.20
2017-09-18T21:21:00.216Z,85.10
2017-09-18T21:23:27.724Z,85.20
2017-09-18T21:25:55.241Z,85.10
2017-09-18T21:28:22.798Z,85.20
2017-09-18T21:30:50.335Z,85.10
2017-09-18T21:33:17.855Z,85.20
2017-09-18T21:35:45.370Z,85.10
2017-09-18T21:38:12.912Z,85.00
2017-09-18T21:40:40.439Z,85.00
2017-09-18T21:43:07.935Z,85.10
2017-09-18T21:45:35.451Z,85.00
2017-09-18T21:48:03.072Z,85.10
2017-09-18T21:50:30.574Z,85.10
2017-09-18T21:52:58.071Z,85.20
2017-09-18T21:55:25.571Z,85.10
2017-09-18T21:57:53.153Z,85.20
2017-09-18T22:00:20.649Z,85.20
2017-09-18T22:02:48.924Z,85.20
2017-09-18T22:05:16.422Z,85.10
2017-09-18T22:07:43.944Z,85.10
2017-09-18T22:10:12.219Z,85.10
2017-09-18T22:12:40.491Z,85.00
2017-09-18T22:15:07.991Z,84.90
2017-09-18T22:17:35.547Z,85.00
2017-09-18T22:20:03.058Z,85.00
2017-09-18T22:22:30.582Z,84.90
2017-09-18T22:24:58.138Z,84.90
2017-09-18T22:27:25.653Z,84.90
2017-09-18T22:29:53.143Z,85.00
2017-09-18T22:32:20.696Z,84.90
2017-09-18T22:34:48.199Z,85.10
2017-09-18T22:37:15.689Z,85.10
2017-09-18T22:39:43.211Z,85.10
2017-09-18T22:42:10.716Z,85.20
2017-09-18T22:44:38.248Z,86.00
2017-09-18T22:47:06.525Z,85.30
2017-09-18T22:49:34.062Z,85.30
2017-09-18T22:52:01.581Z,85.50
2017-09-18T22:54:29.096Z,85.50
2017-09-18T22:56:56.603Z,85.60
2017-09-18T22:59:24.129Z,85.70
2017-09-18T23:01:52.379Z,85.70
2017-09-18T23:04:20.685Z,85.70
2017-09-18T23:06:48.197Z,85.70
2017-09-18T23:09:15.685Z,85.70
2017-09-18T23:11:43.217Z,85.60
2017-09-18T23:14:10.704Z,85.60
2017-09-18T23:16:38.208Z,85.40
2017-09-18T23:19:05.703Z,85.40
2017-09-18T23:21:33.982Z,85.20
2017-09-18T23:24:02.259Z,85.10
2017-09-18T23:26:29.780Z,85.10
2017-09-18T23:28:57.271Z,85.00
2017-09-18T23:31:24.788Z,85.00
2017-09-18T23:33:52.281Z,84.80
2017-09-18T23:36:20.543Z,85.00
2017-09-18T23:38:48.027Z,85.00
2017-09-18T23:41:16.295Z,84.90
2017-09-18T23:43:44.555Z,84.80
2017-09-18T23:46:12.087Z,84.80
2017-09-18T23:48:39.567Z,84.70
2017-09-18T23:51:07.049Z,84.70
2017-09-18T23:53:35.322Z,84.90
2017-09-18T23:56:02.819Z,84.90
2017-09-18T23:58:30.320Z,85.10
